METAR Data
IDs: Format: Raw Decoded Include TAF

Data at: 1527 UTC 24 Aug 2019

PAFA 241505Z 00000KT 1/2SM R02L/2400V5000FT FG BKN003 BKN200 06/06 A2971 RMK AO2 T00610056
PAFA 241453Z 00000KT 1/4SM R02L/2200VP6000FT FG BKN002 07/06 A2970 RMK AO2 SFC VIS 1/2 SLP064 60000 T00670056 53011
PAFA 241442Z 00000KT 1/8SM R02L/1600V2400FT FG BKN002 07/06 A2970 RMK AO2 SFC VIS 1/2 T00670056
PAFA 241426Z 00000KT 1/8SM R02L/1200V1400FT FG BKN002 07/06 A2970 RMK AO2 SFC VIS 1/4 T00670056
PAFA 241353Z 03003KT 1/8SM R02L/1800V2800FT FG BKN002 07/06 A2969 RMK AO2 SFC VIS 1/2 SLP058 P0000 T00720061
PAFA 241329Z 36003KT 1/8SM R02L/P6000FT BR OVC002 07/06 A2969 RMK AO2 SFC VIS 1 T00720061
PAFA 241253Z 00000KT 1/8SM R02L/P6000FT FEW004 SCT075 BKN200 07/06 A2968 RMK AO2 SLP056 VIS NE 1/2 T00720056
PAFA 241153Z 35003KT 10SM FEW004 BKN075 08/07 A2967 RMK AO2 SLP053 60000 70004 T00780067 10100 20078 53009
PAFA 241053Z 36003KT 10SM FEW004 BKN080 09/07 A2966 RMK AO2 SLP048 T00890072
PAFA 240953Z 00000KT 10SM BKN070 09/07 A2965 RMK AO2 SLP044 T00890072
PAFA 240853Z 00000KT 10SM SCT065 BKN120 09/07 A2964 RMK AO2 SLP043 60000 T00890072 401500067 53012
PAFA 240753Z 00000KT 10SM SCT050 BKN070 BKN100 09/07 A2963 RMK AO2 RAE32 SLP039 P0000 T00940072
PAFA 240653Z 31003KT 10SM -RA FEW040 BKN055CB BKN100 10/07 A2962 RMK AO2 RAB02E20B50 SLP035 CB OHD-E MOV SE P0000 T01000072
PAFA 240553Z 06005KT 10SM FEW043 BKN050CB BKN090 10/08 A2961 RMK AO2 RAE04 SLP031 PRSNT WX VCSH N-NE CB N-NE MOV E P0000 60004 T01000078 10133 20094 53009
PAFA 240453Z COR 16004KT 7SM -RA FEW043 BKN055CB BKN085 10/07 A2959 RMK AO2 SLP026 CB OHD MOV E P0004 T01000072
PAFA 240353Z 06003KT 10SM RA BKN037 BKN045CB BKN080 11/07 A2959 RMK AO2 RAE12B37 SLP025 P0000 T01060067
PAFA 240253Z VRB03KT 10SM -RA FEW026 BKN055CB BKN080 BKN130 12/06 A2958 RMK AO2 RAB29 SLP021 CB OHD-N-NE MOV E P0000 60000 T01170061 53012
PAFA 240153Z 00000KT 10SM BKN055CB BKN075 BKN200 13/09 A2956 RMK AO2 SLP014 PRSNT WX VCSH NE CB NE MOV E T01280089
PAFA 240053Z VRB04KT 10SM BKN055CB BKN075 BKN200 12/08 A2955 RMK AO2 RAB17E40 SLP012 PRSNT WX VCSH E-S CB E-S MOV E P0000 T01220083
PAFA 232353Z 23009G17KT 10SM FEW018 BKN055 BKN090 13/06 A2954 RMK AO2 SLP009 60000 T01330061 10150 20083 55001
PAFA 232253Z 23008KT 10SM FEW018 BKN050 BKN085 14/07 A2953 RMK AO2 SLP005 T01440072
PAFA 232153Z 24007KT 10SM FEW012 BKN055 BKN085 13/08 A2954 RMK AO2 SLP007 T01330078
PAFA 232053Z 19005KT 10SM FEW011 BKN055 BKN080 11/07 A2955 RMK AO2 SLP010 60000 T01110072 58003
PAFA 231953Z 00000KT 10SM FEW011 BKN055 BKN075 11/07 A2955 RMK AO2 SLP012 T01060067
PAFA 231853Z 00000KT 10SM FEW011 BKN050 BKN075 09/06 A2956 RMK AO2 RAE09 SLP014 P0000 T00940061
PAFA 231753Z 00000KT 10SM -RA FEW011 BKN050 BKN075 08/06 A2956 RMK AO2 RAB50 SLP014 P0000 60000 T00830061 10083 20067 58002
PAFA 231653Z 16004KT 10SM FEW011 BKN050 OVC080 08/06 A2956 RMK AO2 SLP014 T00780061 $
PAFA 231553Z 00000KT 10SM SCT045 BKN060 BKN075 08/06 A2956 RMK AO2 SLP015 T00780056 $
PAFA 231453Z 00000KT 10SM SCT045 BKN060 BKN075 07/05 A2956 RMK AO2 SLP014 T00720050 53004 $
PAFA 231353Z 06004KT 10SM BKN060 BKN080 07/05 A2955 RMK AO2 SLP011 T00720050 $
PAFA 231253Z 16004KT 10SM BKN075 BKN090 08/06 A2955 RMK AO2 SLP012 T00780061 $
PAFA 231153Z 03004KT 10SM SCT065 BKN090 08/06 A2955 RMK AO2 RAE29 SLP011 P0000 60000 T00780056 10111 20078 58005 $
PAFA 231053Z 00000KT 10SM -RA SCT060 BKN080 09/06 A2956 RMK AO2 RAB49 SLP013 P0000 T00890061 $
PAFA 230953Z 16003KT 10SM BKN060 BKN090 09/07 A2957 RMK AO2 SLP017 T00890067 $
PAFA 230853Z 00000KT 10SM SCT060 BKN120 09/06 A2956 RMK AO2 SLP016 60000 T00890061 401610039 56001 $
PAFA 230753Z COR 00000KT 10SM BKN070 BKN100 11/06 A2957 RMK AO2 RAB40RAE51 SLP016 P0000 T01060061 $
PAFA 230653Z 00000KT 10SM BKN065 BKN080 BKN110 09/07 A2956 RMK AO2 SLP017 T00940067
PAFA 230553Z 00000KT 10SM SCT065 SCT150 11/07 A2957 RMK AO2 SLP018 T01110067 10161 20106 56004
PAFA 230453Z 27003KT 10SM BKN065 BKN150 BKN200 13/08 A2957 RMK AO2 SLP019 T01330078
PAFA 230353Z 00000KT 10SM BKN075 BKN150 BKN200 15/07 A2958 RMK AO2 SLP020 T01500067